Airport View

Enter AWOS ICAO identifier for current METAR.

ex. KFNL

KSIF 210050Z AUTO 00000KT 10SM CLR 16/14 A3026 RMK AO2 T01630143

21 Sep 2019 00:46

Frequency: 119.775

Phone: 336-573-3677

Other Area AWOS: KMTV - KGSO - KINT - KBUY

TAF KGSO 202320Z 2100/2124 23004KT P6SM SCT250